createdAt,value
2018-11-01T00:01:39.127Z,5.23
2018-11-01T00:04:07.393Z,5.37
2018-11-01T00:06:35.603Z,4.63
2018-11-01T00:09:04.200Z,3.53
2018-11-01T00:11:33.768Z,4.33
2018-11-01T00:14:03.187Z,4.10
2018-11-01T00:16:31.797Z,4.80
2018-11-01T00:19:00.043Z,3.70
2018-11-01T00:21:28.154Z,3.90
2018-11-01T00:23:56.351Z,3.50
2018-11-01T00:26:24.671Z,4.70
2018-11-01T00:28:52.778Z,2.87
2018-11-01T00:31:21.315Z,3.47
2018-11-01T00:33:49.385Z,3.40
2018-11-01T00:36:17.538Z,3.50
2018-11-01T00:38:45.960Z,2.90
2018-11-01T00:41:14.817Z,3.40
2018-11-01T00:43:43.266Z,2.90
2018-11-01T00:46:11.425Z,3.60
2018-11-01T00:48:39.734Z,2.70
2018-11-01T00:51:07.939Z,3.13
2018-11-01T00:53:36.043Z,3.27
2018-11-01T00:56:04.275Z,3.00
2018-11-01T00:58:33.809Z,1.90
2018-11-01T01:01:02.522Z,3.10
2018-11-01T01:03:31.010Z,2.27
2018-11-01T01:05:59.122Z,2.00
2018-11-01T01:08:27.334Z,2.80
2018-11-01T01:10:55.373Z,2.13
2018-11-01T01:13:23.551Z,2.57
2018-11-01T01:15:51.593Z,3.07
2018-11-01T01:18:19.806Z,2.17
2018-11-01T01:20:48.009Z,2.77
2018-11-01T01:23:16.382Z,2.60
2018-11-01T01:25:44.503Z,2.30
2018-11-01T01:28:12.624Z,2.30
2018-11-01T01:30:40.766Z,2.03
2018-11-01T01:33:09.077Z,2.37
2018-11-01T01:35:37.324Z,2.10
2018-11-01T01:38:06.085Z,2.93
2018-11-01T01:40:34.323Z,2.60
2018-11-01T01:43:02.747Z,2.60
2018-11-01T01:45:31.230Z,2.77
2018-11-01T01:47:59.726Z,2.23
2018-11-01T01:50:28.665Z,2.07
2018-11-01T01:52:56.881Z,2.73
2018-11-01T01:55:25.019Z,2.30
2018-11-01T01:57:53.094Z,2.43
2018-11-01T02:00:21.404Z,2.57
2018-11-01T02:02:51.386Z,1.97
2018-11-01T02:05:19.358Z,1.00
2018-11-01T02:07:47.595Z,2.00
2018-11-01T02:10:16.483Z,1.63
2018-11-01T02:12:44.599Z,1.80
2018-11-01T02:15:15.502Z,1.80
2018-11-01T02:17:43.838Z,1.77
2018-11-01T02:20:13.068Z,2.00
2018-11-01T02:22:41.797Z,1.90
2018-11-01T02:25:10.554Z,1.60
2018-11-01T02:27:43.997Z,1.83
2018-11-01T02:30:13.361Z,1.57
2018-11-01T02:32:42.413Z,1.20
2018-11-01T02:35:12.389Z,1.60
2018-11-01T02:37:40.734Z,1.57
2018-11-01T02:40:09.250Z,1.30
2018-11-01T02:42:37.598Z,1.33
2018-11-01T02:45:06.100Z,1.80
2018-11-01T02:47:34.681Z,1.80
2018-11-01T02:50:02.828Z,2.07
2018-11-01T02:52:31.658Z,1.43
2018-11-01T02:54:59.691Z,1.40
2018-11-01T02:57:27.989Z,1.60
2018-11-01T02:59:56.303Z,1.30
2018-11-01T03:02:24.282Z,1.30
2018-11-01T03:04:52.380Z,1.50
2018-11-01T03:07:20.482Z,2.13
2018-11-01T03:09:48.526Z,1.93
2018-11-01T03:12:16.606Z,1.67
2018-11-01T03:14:44.739Z,2.40
2018-11-01T03:17:12.851Z,2.50
2018-11-01T03:19:40.834Z,1.93
2018-11-01T03:22:08.946Z,1.63
2018-11-01T03:24:37.150Z,1.80
2018-11-01T03:27:05.645Z,2.73
2018-11-01T03:29:33.866Z,1.80
2018-11-01T03:32:02.351Z,2.20
2018-11-01T03:34:30.370Z,2.10
2018-11-01T03:36:58.719Z,2.03
2018-11-01T03:39:26.986Z,1.50
2018-11-01T03:41:55.025Z,3.23
2018-11-01T03:44:23.050Z,1.97
2018-11-01T03:46:51.103Z,1.80
2018-11-01T03:49:19.463Z,1.60
2018-11-01T03:51:47.520Z,2.60
2018-11-01T03:54:15.608Z,2.00
2018-11-01T03:56:43.796Z,2.60
2018-11-01T03:59:12.099Z,2.33
2018-11-01T04:01:40.295Z,1.93
2018-11-01T04:04:08.502Z,2.30
2018-11-01T04:06:36.661Z,2.10
2018-11-01T04:09:06.622Z,2.40
2018-11-01T04:11:34.851Z,1.90
2018-11-01T04:14:02.975Z,2.33
2018-11-01T04:16:31.270Z,2.20
2018-11-01T04:18:59.439Z,2.13
2018-11-01T04:21:34.050Z,2.20
2018-11-01T04:24:07.985Z,2.87
2018-11-01T04:26:42.139Z,2.90
2018-11-01T04:29:16.095Z,2.27
2018-11-01T04:31:49.958Z,2.63
2018-11-01T04:34:23.997Z,2.73
2018-11-01T04:36:58.211Z,3.37
2018-11-01T04:39:32.444Z,2.97
2018-11-01T04:42:06.678Z,3.43
2018-11-01T04:44:40.658Z,2.80
2018-11-01T04:47:14.687Z,3.30
2018-11-01T04:49:48.626Z,3.40
2018-11-01T04:52:22.537Z,3.10
2018-11-01T04:54:56.688Z,3.03
2018-11-01T04:57:31.114Z,3.03
2018-11-01T05:00:06.576Z,3.30
2018-11-01T05:02:41.106Z,2.80
2018-11-01T05:05:15.223Z,3.03
2018-11-01T05:07:49.161Z,3.53
2018-11-01T05:10:23.255Z,3.70
2018-11-01T05:12:57.355Z,3.00
2018-11-01T05:15:31.310Z,3.57
2018-11-01T05:18:05.583Z,3.77
2018-11-01T05:20:39.590Z,3.20
2018-11-01T05:23:13.602Z,3.47
2018-11-01T05:25:47.809Z,3.17
2018-11-01T05:28:22.616Z,2.80
2018-11-01T05:30:56.650Z,3.20
2018-11-01T05:33:31.168Z,3.37
2018-11-01T05:36:05.402Z,2.80
2018-11-01T05:38:39.512Z,2.87
2018-11-01T05:41:13.378Z,3.20
2018-11-01T05:43:47.349Z,2.77
2018-11-01T05:46:21.355Z,2.40
2018-11-01T05:48:55.446Z,2.43
2018-11-01T05:51:29.473Z,2.43
2018-11-01T05:54:03.615Z,3.00
2018-11-01T05:56:37.804Z,2.80
2018-11-01T05:59:11.857Z,2.77
2018-11-01T06:01:52.904Z,2.17
2018-11-01T06:04:27.134Z,2.30
2018-11-01T06:07:01.947Z,3.70
2018-11-01T06:09:36.308Z,2.53
2018-11-01T06:12:10.436Z,2.33
2018-11-01T06:14:44.305Z,2.73
2018-11-01T06:17:18.290Z,2.10
2018-11-01T06:19:52.133Z,1.83
2018-11-01T06:22:26.305Z,1.77
2018-11-01T06:25:00.460Z,1.97
2018-11-01T06:27:34.449Z,2.30
2018-11-01T06:30:09.715Z,2.07
2018-11-01T06:32:44.349Z,2.20
2018-11-01T06:35:21.479Z,2.33
2018-11-01T06:37:55.563Z,2.50
2018-11-01T06:40:29.624Z,2.40
2018-11-01T06:43:03.789Z,2.63
2018-11-01T06:45:37.718Z,2.57
2018-11-01T06:48:11.626Z,2.50
2018-11-01T06:50:45.861Z,2.10
2018-11-01T06:53:20.158Z,2.40
2018-11-01T06:55:54.296Z,2.13
2018-11-01T06:58:28.481Z,1.90
2018-11-01T07:01:03.067Z,1.90
2018-11-01T07:03:37.046Z,1.70
2018-11-01T07:06:11.055Z,2.13
2018-11-01T07:08:45.110Z,2.23
2018-11-01T07:11:19.291Z,2.70
2018-11-01T07:13:53.225Z,2.37
2018-11-01T07:16:27.360Z,2.23
2018-11-01T07:19:01.393Z,2.10
2018-11-01T07:21:35.436Z,2.80
2018-11-01T07:24:09.464Z,2.50
2018-11-01T07:26:43.442Z,2.10
2018-11-01T07:29:17.669Z,1.90
2018-11-01T07:31:51.687Z,1.87
2018-11-01T07:34:25.754Z,6.20
2018-11-01T07:36:59.785Z,2.50
2018-11-01T07:39:34.456Z,2.37
2018-11-01T07:42:08.878Z,1.93
2018-11-01T07:44:43.082Z,1.80
2018-11-01T07:47:17.056Z,2.07
2018-11-01T07:49:50.941Z,2.10
2018-11-01T07:52:25.086Z,2.50
2018-11-01T07:54:59.307Z,1.43
2018-11-01T07:57:33.591Z,1.80
2018-11-01T08:00:09.972Z,1.70
2018-11-01T08:02:45.005Z,1.53
2018-11-01T08:05:18.848Z,2.40
2018-11-01T08:07:53.002Z,1.60
2018-11-01T08:10:27.395Z,1.40
2018-11-01T08:13:02.477Z,1.90
2018-11-01T08:15:36.485Z,2.13
2018-11-01T08:18:11.131Z,2.30
2018-11-01T08:20:45.231Z,1.77
2018-11-01T08:23:19.001Z,1.90
2018-11-01T08:25:53.108Z,1.93
2018-11-01T08:28:27.172Z,1.90
2018-11-01T08:31:02.874Z,2.20
2018-11-01T08:33:38.270Z,2.07
2018-11-01T08:36:16.983Z,2.60
2018-11-01T08:38:51.395Z,2.03
2018-11-01T08:41:25.407Z,2.50
2018-11-01T08:43:59.495Z,2.87
2018-11-01T08:46:35.326Z,1.83
2018-11-01T08:49:09.296Z,2.20
2018-11-01T08:51:43.462Z,1.90
2018-11-01T08:54:17.553Z,1.57
2018-11-01T08:56:52.360Z,1.73
2018-11-01T08:59:26.423Z,2.03
2018-11-01T09:02:01.094Z,1.50
2018-11-01T09:04:35.434Z,2.27
2018-11-01T09:07:22.749Z,2.60
2018-11-01T09:09:56.961Z,2.33
2018-11-01T09:12:31.197Z,2.87
2018-11-01T09:15:05.932Z,3.13
2018-11-01T09:17:40.845Z,3.80
2018-11-01T09:20:14.973Z,4.33
2018-11-01T09:22:49.085Z,3.50
2018-11-01T09:25:23.793Z,4.13
2018-11-01T09:27:58.461Z,3.47
2018-11-01T09:30:32.814Z,3.30
2018-11-01T09:33:08.640Z,3.63
2018-11-01T09:35:42.748Z,4.97
2018-11-01T09:38:17.112Z,4.30
2018-11-01T09:40:51.878Z,4.80
2018-11-01T09:43:26.403Z,4.43
2018-11-01T09:46:01.150Z,3.73
2018-11-01T09:48:35.121Z,3.40
2018-11-01T09:51:09.566Z,3.53
2018-11-01T09:53:43.628Z,3.90
2018-11-01T09:56:18.166Z,4.00
2018-11-01T09:58:52.282Z,3.90
2018-11-01T10:01:26.699Z,3.47
2018-11-01T10:04:02.009Z,3.40
2018-11-01T10:06:36.276Z,3.90
2018-11-01T10:09:11.131Z,3.73
2018-11-01T10:11:45.288Z,4.20
2018-11-01T10:14:25.651Z,3.90
2018-11-01T10:17:03.978Z,3.63
2018-11-01T10:19:39.842Z,4.60
2018-11-01T10:22:14.176Z,4.60
2018-11-01T10:24:49.018Z,4.13
2018-11-01T10:27:29.447Z,3.83
2018-11-01T10:30:03.777Z,4.43
2018-11-01T10:32:44.089Z,5.00
2018-11-01T10:35:19.413Z,4.00
2018-11-01T10:37:53.625Z,4.40
2018-11-01T10:40:32.300Z,3.60
2018-11-01T10:43:07.004Z,4.80
2018-11-01T10:45:41.443Z,3.37
2018-11-01T10:48:15.495Z,4.23
2018-11-01T10:50:49.617Z,4.33
2018-11-01T10:53:23.631Z,4.40
2018-11-01T10:56:03.129Z,5.40
2018-11-01T10:58:37.819Z,4.73
2018-11-01T11:04:09.853Z,4.30
2018-11-01T11:06:44.789Z,4.37
2018-11-01T11:09:19.715Z,3.30
2018-11-01T11:11:57.124Z,4.00
2018-11-01T11:14:43.967Z,3.70
2018-11-01T11:17:18.915Z,3.40
2018-11-01T11:19:53.040Z,3.33
2018-11-01T11:22:27.487Z,3.20
2018-11-01T11:25:02.069Z,3.20
2018-11-01T11:27:36.809Z,4.00
2018-11-01T11:30:12.005Z,3.37
2018-11-01T11:32:46.865Z,3.90
2018-11-01T11:35:21.075Z,4.80
2018-11-01T11:37:56.531Z,3.60
2018-11-01T11:40:31.947Z,3.27
2018-11-01T11:43:08.043Z,3.80
2018-11-01T11:45:44.097Z,3.10
2018-11-01T11:48:18.293Z,2.87
2018-11-01T11:50:52.785Z,3.27
2018-11-01T11:53:27.154Z,3.17
2018-11-01T11:56:04.949Z,3.97
2018-11-01T11:58:39.808Z,3.37
2018-11-01T12:01:13.937Z,4.07
2018-11-01T12:03:49.189Z,2.93
2018-11-01T12:06:23.625Z,3.23
2018-11-01T12:08:58.195Z,3.80
2018-11-01T12:11:42.453Z,3.23
2018-11-01T12:14:17.584Z,4.57
2018-11-01T12:19:34.500Z,3.67
2018-11-01T12:22:08.819Z,10.03
2018-11-01T12:24:43.199Z,4.60
2018-11-01T12:27:19.077Z,4.30
2018-11-01T12:29:53.351Z,4.70
2018-11-01T12:32:31.118Z,4.73
2018-11-01T12:35:06.006Z,4.47
2018-11-01T12:37:41.890Z,4.90
2018-11-01T12:40:16.500Z,4.90
2018-11-01T12:42:50.745Z,5.07
2018-11-01T12:45:25.018Z,4.90
2018-11-01T12:48:00.050Z,5.70
2018-11-01T12:50:35.414Z,5.93
2018-11-01T12:53:10.826Z,7.03
2018-11-01T12:55:51.495Z,7.17
2018-11-01T12:58:25.605Z,7.07
2018-11-01T13:01:00.065Z,11.77
2018-11-01T13:03:34.549Z,6.13
2018-11-01T13:06:08.864Z,6.50
2018-11-01T13:08:43.074Z,6.77
2018-11-01T13:11:17.299Z,5.97
2018-11-01T13:13:51.452Z,7.00
2018-11-01T13:16:26.300Z,5.90
2018-11-01T13:21:38.780Z,7.97
2018-11-01T13:24:12.889Z,7.33
2018-11-01T13:26:47.079Z,7.90
2018-11-01T13:29:21.524Z,6.53
2018-11-01T13:31:55.545Z,6.80
2018-11-01T13:34:29.787Z,6.63
2018-11-01T13:37:05.385Z,6.50
2018-11-01T13:39:40.719Z,7.10
2018-11-01T13:42:14.819Z,6.13
2018-11-01T13:44:51.134Z,6.60
2018-11-01T13:47:25.386Z,6.63
2018-11-01T13:50:00.120Z,6.47
2018-11-01T13:52:34.446Z,6.50
2018-11-01T13:55:10.360Z,5.70
2018-11-01T13:57:44.525Z,5.27
2018-11-01T14:00:19.347Z,6.40
2018-11-01T14:02:54.142Z,5.87
2018-11-01T14:05:28.466Z,5.70
2018-11-01T14:08:03.001Z,6.00
2018-11-01T14:10:39.245Z,6.00
2018-11-01T14:13:13.606Z,6.63
2018-11-01T14:15:47.640Z,6.20
2018-11-01T14:18:22.968Z,5.50
2018-11-01T14:20:56.996Z,7.20
2018-11-01T14:23:32.254Z,7.10
2018-11-01T14:26:06.528Z,6.23
2018-11-01T14:28:41.005Z,5.90
2018-11-01T14:31:15.223Z,6.13
2018-11-01T14:33:49.458Z,6.70
2018-11-01T14:36:23.596Z,6.20
2018-11-01T14:38:57.805Z,5.97
2018-11-01T14:41:32.249Z,5.90
2018-11-01T14:44:06.738Z,7.47
2018-11-01T14:46:41.126Z,5.63
2018-11-01T14:49:15.230Z,5.57
2018-11-01T14:51:59.562Z,4.83
2018-11-01T14:54:34.423Z,5.57
2018-11-01T14:57:12.627Z,4.80
2018-11-01T14:59:49.980Z,5.17
2018-11-01T15:02:23.889Z,5.73
2018-11-01T15:04:58.580Z,5.50
2018-11-01T15:10:20.118Z,5.93
2018-11-01T15:12:54.278Z,5.63
2018-11-01T15:15:28.308Z,5.80
2018-11-01T15:18:05.072Z,7.47
2018-11-01T15:20:39.556Z,5.50
2018-11-01T15:23:14.836Z,7.10
2018-11-01T15:25:48.929Z,5.73
2018-11-01T15:28:23.305Z,8.37
2018-11-01T15:31:01.209Z,5.23
2018-11-01T15:33:36.809Z,7.00
2018-11-01T15:36:12.151Z,5.03
2018-11-01T15:38:46.565Z,5.80
2018-11-01T15:41:20.881Z,6.30
2018-11-01T15:43:55.124Z,6.33
2018-11-01T15:46:29.409Z,6.30
2018-11-01T15:49:08.542Z,6.00
2018-11-01T15:51:50.537Z,6.23
2018-11-01T15:54:24.830Z,5.90
2018-11-01T15:56:59.306Z,6.00
2018-11-01T16:02:16.006Z,7.53
2018-11-01T16:04:50.596Z,7.57
2018-11-01T16:07:24.852Z,6.37
2018-11-01T16:10:02.346Z,5.70
2018-11-01T16:12:40.072Z,6.43
2018-11-01T16:15:20.590Z,7.87
2018-11-01T16:20:45.767Z,6.17
2018-11-01T16:23:20.363Z,7.77
2018-11-01T16:25:55.001Z,7.50
2018-11-01T16:28:29.471Z,7.13
2018-11-01T16:31:03.741Z,8.47
2018-11-01T16:33:38.228Z,8.40
2018-11-01T16:42:07.856Z,8.00
2018-11-01T16:44:42.315Z,8.50
2018-11-01T16:47:18.037Z,8.50
2018-11-01T16:49:59.591Z,8.10
2018-11-01T16:52:34.319Z,6.73
2018-11-01T16:57:58.636Z,7.40
2018-11-01T17:03:34.972Z,6.90
2018-11-01T17:06:11.187Z,7.03
2018-11-01T17:08:58.621Z,5.43
2018-11-01T17:14:21.534Z,7.47
2018-11-01T17:19:53.554Z,8.23
2018-11-01T17:22:31.562Z,6.17
2018-11-01T17:27:49.297Z,8.60
2018-11-01T17:30:32.148Z,8.07
2018-11-01T17:33:06.627Z,8.20
2018-11-01T17:35:42.795Z,7.93
2018-11-01T17:38:18.942Z,8.43
2018-11-01T17:40:58.747Z,7.13
2018-11-01T17:43:34.655Z,7.00
2018-11-01T17:46:09.178Z,7.10
2018-11-01T17:48:43.512Z,6.57
2018-11-01T17:54:05.145Z,7.03
2018-11-01T17:56:39.363Z,7.07
2018-11-01T17:59:18.096Z,7.37
2018-11-01T18:01:56.388Z,7.00
2018-11-01T18:04:42.814Z,7.07
2018-11-01T18:07:16.788Z,7.37
2018-11-01T18:12:34.784Z,7.43
2018-11-01T18:15:09.611Z,7.43
2018-11-01T18:17:46.085Z,8.23
2018-11-01T18:28:34.937Z,7.50
2018-11-01T18:31:11.338Z,7.63
2018-11-01T18:33:45.583Z,7.13
2018-11-01T18:36:21.499Z,7.43
2018-11-01T18:38:49.527Z,6.93
2018-11-01T18:41:17.876Z,7.63
2018-11-01T18:43:52.025Z,9.13
2018-11-01T18:46:20.291Z,8.77
2018-11-01T18:51:22.256Z,10.27
2018-11-01T18:53:51.723Z,8.40
2018-11-01T18:56:19.874Z,7.70
2018-11-01T18:58:48.576Z,9.97
2018-11-01T19:03:59.610Z,8.10
2018-11-01T19:09:03.428Z,9.90
2018-11-01T19:11:32.459Z,7.43
2018-11-01T19:14:06.137Z,8.63
2018-11-01T19:16:34.729Z,8.70
2018-11-01T19:19:05.340Z,9.03
2018-11-01T19:21:33.807Z,9.70
2018-11-01T19:24:02.460Z,9.47
2018-11-01T19:26:31.114Z,11.47
2018-11-01T19:29:00.422Z,8.37
2018-11-01T19:31:28.897Z,12.80
2018-11-01T19:33:57.343Z,11.73
2018-11-01T19:36:25.417Z,9.43
2018-11-01T19:41:26.831Z,9.60
2018-11-01T19:43:55.767Z,9.27
2018-11-01T19:46:24.583Z,11.57
2018-11-01T19:48:52.801Z,12.50
2018-11-01T19:51:20.893Z,10.23
2018-11-01T19:53:49.298Z,9.33
2018-11-01T19:56:17.728Z,11.70
2018-11-01T20:01:31.892Z,11.70
2018-11-01T20:04:00.127Z,11.67
2018-11-01T20:06:28.337Z,13.63
2018-11-01T20:08:57.012Z,12.07
2018-11-01T20:11:31.416Z,13.07
2018-11-01T20:13:59.633Z,13.57
2018-11-01T20:16:28.596Z,13.27
2018-11-01T20:19:03.319Z,12.60
2018-11-01T20:21:32.927Z,15.50
2018-11-01T20:24:02.159Z,15.20
2018-11-01T20:26:30.691Z,12.90
2018-11-01T20:28:59.698Z,11.03
2018-11-01T20:31:29.220Z,12.60
2018-11-01T20:33:57.670Z,9.87
2018-11-01T20:36:26.046Z,10.60
2018-11-01T20:38:57.106Z,11.10
2018-11-01T20:41:27.578Z,12.90
2018-11-01T20:43:56.028Z,10.40
2018-11-01T20:46:28.245Z,11.60
2018-11-01T20:48:56.730Z,10.70
2018-11-01T20:51:25.336Z,11.47
2018-11-01T20:53:54.936Z,10.13
2018-11-01T20:56:23.296Z,10.57
2018-11-01T20:58:53.592Z,8.40
2018-11-01T21:01:21.719Z,9.37
2018-11-01T21:03:50.685Z,9.70
2018-11-01T21:06:18.982Z,9.43
2018-11-01T21:08:47.714Z,10.07
2018-11-01T21:11:16.147Z,11.00
2018-11-01T21:13:45.908Z,10.33
2018-11-01T21:16:14.610Z,10.60
2018-11-01T21:18:42.773Z,9.63
2018-11-01T21:21:10.976Z,10.90
2018-11-01T21:23:39.452Z,10.53
2018-11-01T21:26:07.765Z,10.37
2018-11-01T21:31:11.097Z,9.97
2018-11-01T21:33:39.535Z,10.30
2018-11-01T21:36:09.114Z,9.77
2018-11-01T21:38:37.486Z,11.03
2018-11-01T21:41:05.890Z,10.80
2018-11-01T21:43:37.494Z,8.50
2018-11-01T21:46:06.909Z,10.90
2018-11-01T21:48:35.030Z,9.80
2018-11-01T21:51:04.078Z,10.13
2018-11-01T21:53:32.553Z,10.30
2018-11-01T21:56:00.938Z,10.17
2018-11-01T21:58:31.244Z,10.77
2018-11-01T22:00:59.438Z,9.83
2018-11-01T22:03:28.695Z,10.90
2018-11-01T22:05:57.204Z,8.87
2018-11-01T22:08:25.518Z,12.20
2018-11-01T22:10:53.686Z,9.07
2018-11-01T22:13:22.075Z,10.63
2018-11-01T22:15:50.788Z,9.97
2018-11-01T22:18:18.972Z,11.40
2018-11-01T22:20:47.072Z,11.53
2018-11-01T22:23:15.099Z,11.43
2018-11-01T22:25:43.723Z,10.50
2018-11-01T22:28:12.012Z,10.67
2018-11-01T22:30:39.958Z,11.63
2018-11-01T22:33:08.424Z,10.10
2018-11-01T22:35:36.689Z,10.43
2018-11-01T22:38:05.843Z,10.70
2018-11-01T22:40:33.993Z,10.50
2018-11-01T22:43:02.119Z,10.60
2018-11-01T22:45:30.406Z,10.23
2018-11-01T22:47:59.881Z,9.60
2018-11-01T22:50:28.006Z,10.67
2018-11-01T22:52:56.148Z,9.63
2018-11-01T22:55:24.565Z,9.90
2018-11-01T22:57:52.595Z,9.47
2018-11-01T23:00:20.784Z,9.57
2018-11-01T23:02:49.944Z,9.20
2018-11-01T23:05:18.245Z,9.27
2018-11-01T23:07:46.348Z,9.60
2018-11-01T23:10:15.298Z,9.80
2018-11-01T23:12:43.751Z,9.53
2018-11-01T23:15:12.448Z,10.13
2018-11-01T23:17:41.367Z,8.33
2018-11-01T23:20:09.903Z,10.70
2018-11-01T23:22:38.006Z,9.30
2018-11-01T23:25:06.474Z,8.50
2018-11-01T23:27:34.777Z,9.97
2018-11-01T23:30:03.358Z,8.40
2018-11-01T23:32:31.490Z,9.77
2018-11-01T23:34:59.637Z,10.40
2018-11-01T23:37:33.195Z,9.00
2018-11-01T23:40:06.579Z,9.40
2018-11-01T23:42:39.890Z,10.00
2018-11-01T23:45:13.244Z,9.50
2018-11-01T23:47:46.909Z,9.60
2018-11-01T23:50:54.629Z,9.40
2018-11-01T23:53:27.213Z,9.13
2018-11-01T23:55:55.363Z,8.43
2018-11-01T23:58:24.355Z,8.50
